Time;durP1;ratioP1;P1;durP2;ratioP2;P2;SDS_P1;SDS_P2;PMS_P1;PMS_P2;Temp;Humidity;BMP_temperature;BMP_pressure;BME280_temperature;BME280_humidity;BME280_pressure;Samples;Min_cycle;Max_cycle;Signal;HPM_P1;HPM_P2
2023/05/28 00:01:53;;;;;;;;;;;13.00;99.90;;;;;;5043565;28;20111;-66
2023/05/28 00:04:21;;;;;;;;;;;12.90;99.90;;;;;;5043676;28;19988;-66
2023/05/28 00:06:48;;;;;;;;;;;12.90;99.90;;;;;;5042625;28;19921;-66
2023/05/28 00:09:16;;;;;;;;;;;12.80;99.90;;;;;;5043680;28;19975;-66
2023/05/28 00:11:43;;;;;;;;;;;12.80;99.90;;;;;;5043271;28;19927;-66
2023/05/28 00:14:10;;;;;;;;;;;12.80;99.90;;;;;;5043590;28;19925;-66
2023/05/28 00:16:37;;;;;;;;;;;12.70;99.90;;;;;;5042495;28;19988;-66
2023/05/28 00:19:03;;;;;;;;;;;12.70;99.90;;;;;;5024112;28;19921;-68
2023/05/28 00:21:32;;;;;;;;;;;12.60;99.90;;;;;;5023703;28;19921;-66
2023/05/28 00:23:59;;;;;;;;;;;12.50;99.90;;;;;;5023786;28;19976;-66
2023/05/28 00:26:27;;;;;;;;;;;12.50;99.90;;;;;;5022858;28;19929;-66
2023/05/28 00:28:53;;;;;;;;;;;12.40;99.90;;;;;;5040821;28;19921;-66
2023/05/28 00:31:20;;;;;;;;;;;12.40;99.90;;;;;;5043449;28;19984;-66
2023/05/28 00:33:47;;;;;;;;;;;12.40;99.90;;;;;;5043419;28;19921;-66
2023/05/28 00:36:14;;;;;;;;;;;12.40;99.90;;;;;;5042857;28;19992;-66
2023/05/28 00:38:40;;;;;;;;;;;12.30;99.90;;;;;;5043312;28;19921;-66
2023/05/28 00:41:07;;;;;;;;;;;12.30;99.90;;;;;;5042893;28;19948;-66
2023/05/28 00:43:35;;;;;;;;;;;12.30;99.90;;;;;;5042981;28;20275;-66
2023/05/28 00:46:02;;;;;;;;;;;12.20;99.90;;;;;;5042594;28;20259;-66
2023/05/28 00:48:29;;;;;;;;;;;12.20;99.90;;;;;;5042947;28;19921;-66
2023/05/28 00:50:56;;;;;;;;;;;12.20;99.90;;;;;;5042895;28;19928;-66
2023/05/28 00:53:24;;;;;;;;;;;12.10;99.90;;;;;;5043146;28;19928;-66
2023/05/28 00:55:51;;;;;;;;;;;12.10;99.90;;;;;;5043105;28;19996;-66
2023/05/28 00:58:19;;;;;;;;;;;12.10;99.90;;;;;;5041949;28;19952;-66
2023/05/28 01:00:47;;;;;;;;;;;12.00;99.90;;;;;;5035294;28;20212;-66
2023/05/28 01:03:14;;;;;;;;;;;12.00;99.90;;;;;;5043179;28;19983;-66
2023/05/28 01:05:42;;;;;;;;;;;12.00;99.90;;;;;;5044040;28;19963;-66
2023/05/28 01:08:09;;;;;;;;;;;11.90;99.90;;;;;;5046128;28;19972;-67
2023/05/28 01:10:36;;;;;;;;;;;11.90;99.90;;;;;;5042573;28;19947;-67
2023/05/28 01:13:05;;;;;;;;;;;11.80;99.90;;;;;;5026744;28;19989;-66
2023/05/28 01:15:31;;;;;;;;;;;11.80;99.90;;;;;;5026911;28;19928;-67
2023/05/28 01:18:01;;;;;;;;;;;11.70;99.90;;;;;;5034946;28;19921;-66
2023/05/28 01:20:28;;;;;;;;;;;11.70;99.90;;;;;;5046659;28;20152;-66
2023/05/28 01:22:56;;;;;;;;;;;11.60;99.90;;;;;;5046611;28;19983;-66
2023/05/28 01:25:25;;;;;;;;;;;11.50;99.90;;;;;;5046303;28;19928;-66
2023/05/28 01:27:51;;;;;;;;;;;11.50;99.90;;;;;;5037701;28;19928;-66
2023/05/28 01:30:18;;;;;;;;;;;11.40;99.90;;;;;;5026683;28;20161;-66
2023/05/28 01:32:45;;;;;;;;;;;11.40;99.90;;;;;;5026638;28;19984;-66
2023/05/28 01:35:12;;;;;;;;;;;11.30;99.90;;;;;;5026589;28;19989;-66
2023/05/28 01:37:52;;;;;;;;;;;11.30;99.90;;;;;;5025632;28;19922;-66
2023/05/28 01:40:19;;;;;;;;;;;11.20;99.90;;;;;;5026815;28;20480;-66
2023/05/28 01:42:47;;;;;;;;;;;11.20;99.90;;;;;;5045913;28;20235;-66
2023/05/28 01:45:15;;;;;;;;;;;11.20;99.90;;;;;;5046199;28;19925;-66
2023/05/28 01:47:42;;;;;;;;;;;11.20;99.90;;;;;;5045521;28;19921;-66
2023/05/28 01:50:09;;;;;;;;;;;11.20;99.90;;;;;;5046003;28;19928;-66
2023/05/28 01:52:36;;;;;;;;;;;11.20;99.90;;;;;;5046086;28;20159;-66
2023/05/28 01:55:03;;;;;;;;;;;11.20;99.90;;;;;;5046007;28;19986;-66
2023/05/28 01:57:30;;;;;;;;;;;11.20;99.90;;;;;;5036326;28;19964;-66
2023/05/28 01:59:58;;;;;;;;;;;11.10;99.90;;;;;;5026074;28;19997;-66
2023/05/28 02:02:26;;;;;;;;;;;11.10;99.90;;;;;;5026221;28;20112;-66
2023/05/28 02:04:53;;;;;;;;;;;10.90;99.90;;;;;;5036336;28;19921;-66
2023/05/28 02:07:19;;;;;;;;;;;10.90;99.90;;;;;;5045193;28;19996;-66
2023/05/28 02:09:46;;;;;;;;;;;10.90;99.90;;;;;;5045880;28;19927;-66
2023/05/28 02:12:13;;;;;;;;;;;10.80;99.90;;;;;;5029244;28;19992;-66
2023/05/28 02:14:39;;;;;;;;;;;10.80;99.90;;;;;;5025852;28;19968;-67
2023/05/28 02:17:08;;;;;;;;;;;10.80;99.90;;;;;;5024406;28;20116;-66
2023/05/28 02:19:35;;;;;;;;;;;10.80;99.90;;;;;;5025258;28;19928;-66
2023/05/28 02:22:01;;;;;;;;;;;10.70;99.90;;;;;;5025743;28;19927;-66
2023/05/28 02:24:28;;;;;;;;;;;10.70;99.90;;;;;;5025402;28;19928;-66
2023/05/28 02:26:54;;;;;;;;;;;10.70;99.90;;;;;;5024684;28;20004;-66
2023/05/28 02:29:21;;;;;;;;;;;10.60;99.90;;;;;;5025458;28;19921;-66
2023/05/28 02:31:48;;;;;;;;;;;10.60;99.90;;;;;;5025455;28;19988;-66
2023/05/28 02:34:16;;;;;;;;;;;10.60;99.90;;;;;;5024664;28;20124;-66
2023/05/28 02:36:43;;;;;;;;;;;10.50;99.90;;;;;;5025015;28;19963;-66
2023/05/28 02:39:10;;;;;;;;;;;10.40;99.90;;;;;;5022597;28;19929;-66
2023/05/28 02:41:37;;;;;;;;;;;10.40;99.90;;;;;;5025243;28;19968;-66
2023/05/28 02:44:03;;;;;;;;;;;10.30;99.90;;;;;;5024833;28;19997;-66
2023/05/28 02:46:30;;;;;;;;;;;10.30;99.90;;;;;;5024179;28;20153;-66
2023/05/28 02:48:57;;;;;;;;;;;10.30;99.90;;;;;;5025285;28;19928;-66
2023/05/28 02:51:25;;;;;;;;;;;10.20;99.90;;;;;;5024815;28;20163;-67
2023/05/28 02:53:51;;;;;;;;;;;10.20;99.90;;;;;;5025096;28;19928;-66
2023/05/28 02:56:18;;;;;;;;;;;10.10;99.90;;;;;;5024222;28;20122;-66
2023/05/28 02:58:45;;;;;;;;;;;10.10;99.90;;;;;;5024762;28;19985;-66
2023/05/28 03:01:12;;;;;;;;;;;10.10;99.90;;;;;;5024967;28;19940;-67
2023/05/28 03:03:38;;;;;;;;;;;10.00;99.90;;;;;;5044062;28;19976;-66
2023/05/28 03:06:06;;;;;;;;;;;10.00;99.90;;;;;;5036486;28;19989;-66
2023/05/28 03:08:35;;;;;;;;;;;10.00;99.90;;;;;;5024576;28;20094;-66
2023/05/28 03:11:01;;;;;;;;;;;10.00;99.90;;;;;;5024788;28;19921;-66
2023/05/28 03:13:28;;;;;;;;;;;10.00;99.90;;;;;;5042804;28;19921;-66
2023/05/28 03:15:54;;;;;;;;;;;9.90;99.90;;;;;;5043532;28;20462;-66
2023/05/28 03:18:21;;;;;;;;;;;9.90;99.90;;;;;;5042154;28;19921;-66
2023/05/28 03:20:48;;;;;;;;;;;9.90;99.90;;;;;;5034991;28;19985;-66
2023/05/28 03:23:15;;;;;;;;;;;9.90;99.90;;;;;;5024335;28;20121;-66
2023/05/28 03:25:43;;;;;;;;;;;9.90;99.90;;;;;;5035672;28;19967;-66
2023/05/28 03:28:09;;;;;;;;;;;9.90;99.90;;;;;;5042922;28;19984;-66
2023/05/28 03:30:36;;;;;;;;;;;9.90;99.90;;;;;;5044104;28;20284;-66
2023/05/28 03:33:05;;;;;;;;;;;9.80;99.90;;;;;;5041818;28;19992;-66
2023/05/28 03:35:31;;;;;;;;;;;9.80;99.90;;;;;;5044016;28;19921;-66
2023/05/28 03:37:58;;;;;;;;;;;9.80;99.90;;;;;;5043741;28;19988;-66
2023/05/28 03:40:26;;;;;;;;;;;9.70;99.90;;;;;;5040546;28;19988;-66
2023/05/28 03:42:53;;;;;;;;;;;9.70;99.90;;;;;;5043915;28;19921;-66
2023/05/28 03:45:20;;;;;;;;;;;9.70;99.90;;;;;;5026758;28;19921;-66
2023/05/28 03:47:47;;;;;;;;;;;9.80;99.90;;;;;;5023413;28;19997;-66
2023/05/28 03:50:13;;;;;;;;;;;9.70;99.90;;;;;;5027203;28;19927;-66
2023/05/28 03:52:40;;;;;;;;;;;9.70;99.90;;;;;;5043851;28;19984;-66
2023/05/28 03:55:08;;;;;;;;;;;9.80;99.90;;;;;;5043484;28;19944;-66
2023/05/28 03:57:34;;;;;;;;;;;9.70;99.90;;;;;;5043253;28;19925;-66
2023/05/28 04:00:06;;;;;;;;;;;9.60;99.90;;;;;;5041506;28;19963;-66
2023/05/28 04:02:33;;;;;;;;;;;9.60;99.90;;;;;;5043624;28;19921;-66
2023/05/28 04:05:00;;;;;;;;;;;9.60;99.90;;;;;;5043574;28;19935;-66
2023/05/28 04:07:26;;;;;;;;;;;9.50;99.90;;;;;;5042771;28;19996;-66
2023/05/28 04:09:53;;;;;;;;;;;9.60;99.90;;;;;;5043324;28;19981;-66
2023/05/28 04:12:19;;;;;;;;;;;9.60;99.90;;;;;;5043377;28;20217;-66
2023/05/28 04:14:46;;;;;;;;;;;9.60;99.90;;;;;;5043558;28;19928;-67
2023/05/28 04:17:14;;;;;;;;;;;9.60;99.90;;;;;;5042672;28;20281;-66
2023/05/28 04:19:41;;;;;;;;;;;9.70;99.90;;;;;;5032532;28;19922;-66
2023/05/28 04:22:08;;;;;;;;;;;9.70;99.90;;;;;;5042640;28;19925;-66
2023/05/28 04:24:35;;;;;;;;;;;9.70;99.90;;;;;;5043498;28;19936;-67
2023/05/28 04:27:03;;;;;;;;;;;9.80;99.90;;;;;;5043192;28;20252;-66
2023/05/28 04:29:30;;;;;;;;;;;9.80;99.90;;;;;;5043181;28;20226;-66
2023/05/28 04:31:58;;;;;;;;;;;9.90;99.90;;;;;;5043315;28;19929;-66
2023/05/28 04:34:27;;;;;;;;;;;9.90;99.90;;;;;;5040925;28;19925;-66
2023/05/28 04:36:56;;;;;;;;;;;9.90;99.90;;;;;;5042401;28;19928;-66
2023/05/28 04:39:23;;;;;;;;;;;10.00;99.90;;;;;;5044105;28;19929;-66
2023/05/28 04:41:49;;;;;;;;;;;10.10;99.90;;;;;;5047428;28;19989;-66
2023/05/28 04:44:16;;;;;;;;;;;10.10;99.90;;;;;;5047431;28;19980;-66
2023/05/28 04:46:45;;;;;;;;;;;10.20;99.90;;;;;;5047134;28;19921;-66
2023/05/28 04:49:11;;;;;;;;;;;10.30;99.90;;;;;;5046942;28;20152;-66
2023/05/28 04:51:39;;;;;;;;;;;10.30;99.90;;;;;;5046736;28;19927;-66
2023/05/28 04:54:06;;;;;;;;;;;10.40;99.90;;;;;;5047343;28;19921;-66
2023/05/28 04:56:33;;;;;;;;;;;10.50;99.90;;;;;;5045833;28;19989;-66
2023/05/28 04:58:59;;;;;;;;;;;10.50;99.90;;;;;;5046870;28;19927;-66
2023/05/28 05:01:27;;;;;;;;;;;10.60;99.90;;;;;;5047062;28;19925;-66
2023/05/28 05:03:54;;;;;;;;;;;10.70;99.90;;;;;;5046778;28;19921;-66
2023/05/28 05:06:20;;;;;;;;;;;10.80;99.90;;;;;;5046724;28;19927;-67
2023/05/28 05:08:48;;;;;;;;;;;10.80;99.90;;;;;;5046706;28;19928;-66
2023/05/28 05:11:15;;;;;;;;;;;10.90;99.90;;;;;;5046561;28;19921;-66
2023/05/28 05:13:41;;;;;;;;;;;10.90;99.90;;;;;;5046958;28;20000;-66
2023/05/28 05:16:08;;;;;;;;;;;10.90;99.90;;;;;;5045804;28;19984;-66
2023/05/28 05:18:35;;;;;;;;;;;10.90;99.90;;;;;;5046483;28;19927;-68
2023/05/28 05:21:01;;;;;;;;;;;11.00;99.90;;;;;;5046289;28;20000;-66
2023/05/28 05:23:28;;;;;;;;;;;11.00;99.90;;;;;;5046340;28;19984;-66
2023/05/28 05:25:56;;;;;;;;;;;11.20;99.90;;;;;;5045910;28;20271;-66
2023/05/28 05:28:23;;;;;;;;;;;11.30;99.90;;;;;;5046125;28;19921;-66
2023/05/28 05:30:49;;;;;;;;;;;11.40;99.90;;;;;;5046366;28;19983;-66
2023/05/28 05:33:18;;;;;;;;;;;11.50;99.90;;;;;;5043598;28;19921;-66
2023/05/28 05:35:45;;;;;;;;;;;11.60;99.90;;;;;;5045496;28;19927;-66
2023/05/28 05:38:11;;;;;;;;;;;11.70;99.90;;;;;;5046091;28;19988;-66
2023/05/28 05:40:38;;;;;;;;;;;11.80;99.90;;;;;;5046024;28;19963;-66
2023/05/28 05:43:06;;;;;;;;;;;12.00;99.90;;;;;;5046111;28;19921;-66
2023/05/28 05:45:33;;;;;;;;;;;12.00;99.90;;;;;;5046413;28;19927;-66
2023/05/28 05:47:59;;;;;;;;;;;12.20;99.90;;;;;;5045720;28;19984;-66
2023/05/28 05:50:26;;;;;;;;;;;12.30;99.90;;;;;;5031836;28;19957;-66
2023/05/28 05:52:53;;;;;;;;;;;12.40;99.90;;;;;;5026690;28;19928;-66
2023/05/28 05:55:19;;;;;;;;;;;12.50;99.90;;;;;;5026643;28;20186;-67
2023/05/28 05:57:46;;;;;;;;;;;12.60;99.90;;;;;;5025097;28;19928;-66
2023/05/28 06:00:15;;;;;;;;;;;12.70;99.90;;;;;;5025910;28;19980;-66
2023/05/28 06:02:41;;;;;;;;;;;12.80;99.90;;;;;;5045407;28;19927;-66
2023/05/28 06:05:08;;;;;;;;;;;12.90;99.90;;;;;;5037823;28;19980;-66
2023/05/28 06:07:35;;;;;;;;;;;13.10;99.90;;;;;;5044893;28;19984;-66
2023/05/28 06:10:01;;;;;;;;;;;13.20;99.90;;;;;;5045708;28;20000;-66
2023/05/28 06:12:28;;;;;;;;;;;13.30;99.90;;;;;;5046244;28;20381;-66
2023/05/28 06:14:55;;;;;;;;;;;13.40;99.90;;;;;;5045833;28;19988;-69
2023/05/28 06:17:23;;;;;;;;;;;13.50;99.90;;;;;;5045083;28;19925;-67
2023/05/28 06:19:49;;;;;;;;;;;13.60;99.90;;;;;;5036398;28;20224;-67
2023/05/28 06:22:16;;;;;;;;;;;13.70;99.90;;;;;;5042004;28;19921;-67
2023/05/28 06:24:43;;;;;;;;;;;13.80;99.90;;;;;;5045508;28;20180;-66
2023/05/28 06:27:10;;;;;;;;;;;13.90;99.90;;;;;;5045345;28;19928;-66
2023/05/28 06:29:37;;;;;;;;;;;14.10;99.90;;;;;;5045301;28;19995;-67
2023/05/28 06:32:04;;;;;;;;;;;14.10;99.90;;;;;;5044367;28;20284;-66
2023/05/28 06:34:32;;;;;;;;;;;14.30;99.90;;;;;;5043989;28;19988;-66
2023/05/28 06:36:58;;;;;;;;;;;14.40;99.90;;;;;;5044633;28;19928;-66
2023/05/28 06:39:26;;;;;;;;;;;14.50;99.90;;;;;;5045182;28;19963;-66
2023/05/28 06:41:52;;;;;;;;;;;14.60;99.90;;;;;;5038318;28;19949;-66
2023/05/28 06:44:19;;;;;;;;;;;14.70;99.90;;;;;;5025414;28;19993;-67
2023/05/28 06:46:46;;;;;;;;;;;14.90;99.90;;;;;;5024685;28;19988;-66
2023/05/28 06:49:12;;;;;;;;;;;15.00;99.90;;;;;;5027647;28;19921;-66
2023/05/28 06:51:40;;;;;;;;;;;15.00;99.90;;;;;;5044687;28;19921;-66
2023/05/28 06:54:07;;;;;;;;;;;15.20;99.90;;;;;;5044908;28;19921;-66
2023/05/28 06:56:33;;;;;;;;;;;15.30;99.90;;;;;;5043616;28;19979;-66
2023/05/28 06:59:00;;;;;;;;;;;15.40;99.90;;;;;;5044730;28;19921;-68
2023/05/28 07:01:27;;;;;;;;;;;15.40;99.90;;;;;;5044855;28;19921;-66
2023/05/28 07:03:53;;;;;;;;;;;15.50;99.90;;;;;;5044478;28;19996;-68
2023/05/28 07:06:20;;;;;;;;;;;15.60;99.90;;;;;;5044304;28;19984;-66
2023/05/28 07:08:48;;;;;;;;;;;15.60;99.90;;;;;;5044447;28;19921;-66
2023/05/28 07:11:15;;;;;;;;;;;15.70;99.90;;;;;;5044206;28;19927;-66
2023/05/28 07:13:41;;;;;;;;;;;15.80;99.90;;;;;;5044295;28;20227;-66
2023/05/28 07:16:08;;;;;;;;;;;15.90;99.90;;;;;;5043687;28;19986;-67
2023/05/28 07:18:35;;;;;;;;;;;16.00;99.90;;;;;;5043962;28;19921;-66
2023/05/28 07:21:01;;;;;;;;;;;16.10;99.90;;;;;;5038822;28;19926;-67
2023/05/28 07:23:29;;;;;;;;;;;16.10;99.90;;;;;;5024290;28;19989;-67
2023/05/28 07:25:57;;;;;;;;;;;16.20;99.90;;;;;;5024020;28;19922;-67
2023/05/28 07:28:24;;;;;;;;;;;16.20;99.90;;;;;;5024227;28;19921;-67
2023/05/28 07:30:51;;;;;;;;;;;16.40;99.90;;;;;;5024528;28;19921;-67
2023/05/28 07:33:18;;;;;;;;;;;16.50;99.90;;;;;;5023625;28;19929;-67
2023/05/28 07:35:45;;;;;;;;;;;16.60;99.90;;;;;;5023709;28;19984;-66
2023/05/28 07:38:12;;;;;;;;;;;16.70;99.90;;;;;;5030953;28;20035;-66
2023/05/28 07:40:39;;;;;;;;;;;16.80;99.90;;;;;;5042690;28;19989;-66
2023/05/28 07:43:07;;;;;;;;;;;16.80;99.90;;;;;;5043689;28;19980;-67
2023/05/28 07:45:34;;;;;;;;;;;16.90;99.90;;;;;;5043302;28;19989;-67
2023/05/28 07:48:01;;;;;;;;;;;17.00;99.90;;;;;;5036937;28;19957;-66
2023/05/28 07:50:27;;;;;;;;;;;17.10;99.90;;;;;;5041878;28;19921;-67
2023/05/28 07:56:09;;;;;;;;;;;17.30;99.90;;;;;;5037026;23;20152;-72
2023/05/28 07:58:37;;;;;;;;;;;17.40;99.90;;;;;;5039528;28;19928;-70
2023/05/28 08:01:08;;;;;;;;;;;17.50;99.90;;;;;;5030146;28;19977;-70
2023/05/28 08:03:35;;;;;;;;;;;17.50;99.90;;;;;;5043121;28;19948;-71
2023/05/28 08:06:02;;;;;;;;;;;17.50;99.90;;;;;;5042734;28;20376;-69
2023/05/28 08:08:31;;;;;;;;;;;17.50;99.90;;;;;;5038752;28;19963;-71
2023/05/28 08:10:58;;;;;;;;;;;17.60;99.90;;;;;;5040899;28;19927;-71
2023/05/28 08:13:25;;;;;;;;;;;17.60;99.90;;;;;;5037336;28;19921;-71
2023/05/28 08:15:53;;;;;;;;;;;17.60;99.90;;;;;;5042572;28;20227;-71
2023/05/28 08:18:20;;;;;;;;;;;17.80;99.90;;;;;;5040475;28;19929;-71
2023/05/28 08:20:47;;;;;;;;;;;17.80;99.90;;;;;;5043448;28;19979;-71
2023/05/28 08:23:14;;;;;;;;;;;18.00;99.90;;;;;;5041811;28;20278;-71
2023/05/28 08:25:40;;;;;;;;;;;18.00;99.90;;;;;;5030373;28;19921;-71
2023/05/28 08:28:09;;;;;;;;;;;18.10;99.90;;;;;;5042607;28;20165;-71
2023/05/28 08:36:47;;;;;;;;;;;18.20;99.90;;;;;;5022897;28;19984;-71
2023/05/28 08:42:39;;;;;;;;;;;18.40;99.90;;;;;;5036826;28;19972;-71
2023/05/28 08:45:07;;;;;;;;;;;18.40;99.90;;;;;;5053654;28;19921;-71
2023/05/28 08:47:34;;;;;;;;;;;18.50;99.90;;;;;;5060505;28;19933;-71
2023/05/28 08:50:03;;;;;;;;;;;18.60;99.90;;;;;;5062883;28;20230;-71
2023/05/28 08:52:31;;;;;;;;;;;18.70;99.90;;;;;;5060522;28;19921;-71
2023/05/28 08:54:58;;;;;;;;;;;18.70;99.90;;;;;;5043416;28;19921;-70
2023/05/28 08:57:25;;;;;;;;;;;18.80;99.90;;;;;;5041929;28;19943;-70
2023/05/28 08:59:53;;;;;;;;;;;18.90;99.90;;;;;;5043047;28;19980;-70
2023/05/28 09:02:21;;;;;;;;;;;18.90;99.90;;;;;;5032284;28;19989;-70
2023/05/28 09:04:48;;;;;;;;;;;19.00;99.90;;;;;;5041537;28;19921;-70
2023/05/28 09:07:14;;;;;;;;;;;19.10;99.90;;;;;;5042418;28;19983;-70
2023/05/28 09:09:42;;;;;;;;;;;19.10;99.90;;;;;;5039123;28;20116;-70
2023/05/28 09:12:11;;;;;;;;;;;19.30;99.90;;;;;;5031005;28;19927;-70
2023/05/28 09:14:38;;;;;;;;;;;19.40;99.90;;;;;;5042780;28;19921;-70
2023/05/28 09:17:05;;;;;;;;;;;19.40;99.90;;;;;;5042616;28;19988;-70
2023/05/28 09:19:31;;;;;;;;;;;19.40;99.90;;;;;;5042983;28;20163;-71
2023/05/28 09:22:01;;;;;;;;;;;19.50;99.90;;;;;;5043026;28;19921;-70
2023/05/28 09:24:28;;;;;;;;;;;19.60;99.90;;;;;;5042991;28;19983;-71
2023/05/28 09:26:57;;;;;;;;;;;19.70;99.90;;;;;;5022316;28;19921;-70
2023/05/28 09:29:24;;;;;;;;;;;19.80;99.90;;;;;;5044359;28;20223;-70
2023/05/28 09:32:00;;;;;;;;;;;19.80;99.90;;;;;;5045874;28;19921;-73
2023/05/28 09:34:27;;;;;;;;;;;19.80;99.90;;;;;;5046453;28;19921;-71
2023/05/28 09:36:54;;;;;;;;;;;19.90;99.90;;;;;;5045486;28;19921;-70
2023/05/28 09:39:25;;;;;;;;;;;20.00;99.90;;;;;;5046186;28;19925;-71
2023/05/28 09:42:03;;;;;;;;;;;20.00;99.90;;;;;;5037852;28;19921;-71
2023/05/28 09:44:35;;;;;;;;;;;20.10;99.90;;;;;;5026080;28;19984;-71
2023/05/28 09:47:21;;;;;;;;;;;20.10;99.90;;;;;;5025611;28;19985;-71
2023/05/28 09:49:49;;;;;;;;;;;20.20;99.90;;;;;;5026889;28;20147;-74
2023/05/28 09:52:25;;;;;;;;;;;20.30;99.90;;;;;;5026718;28;19927;-71
2023/05/28 09:54:54;;;;;;;;;;;20.50;99.90;;;;;;5028896;28;19921;-71
2023/05/28 09:57:23;;;;;;;;;;;20.50;99.90;;;;;;5045746;28;19968;-70
2023/05/28 09:59:50;;;;;;;;;;;20.60;99.90;;;;;;5045845;28;20212;-70
2023/05/28 10:02:23;;;;;;;;;;;20.80;99.90;;;;;;5045696;28;20123;-71
2023/05/28 10:04:53;;;;;;;;;;;20.80;99.90;;;;;;5045566;28;20208;-70
2023/05/28 10:07:21;;;;;;;;;;;20.90;99.90;;;;;;5045220;28;19943;-70
2023/05/28 10:09:48;;;;;;;;;;;20.90;99.90;;;;;;5045648;28;20089;-70
2023/05/28 10:12:17;;;;;;;;;;;21.00;99.90;;;;;;5045532;28;19921;-71
2023/05/28 10:14:45;;;;;;;;;;;21.00;99.90;;;;;;5025797;28;19984;-73
2023/05/28 10:17:12;;;;;;;;;;;21.10;99.90;;;;;;5025723;28;19964;-72
2023/05/28 10:19:39;;;;;;;;;;;21.20;99.90;;;;;;5025908;28;19921;-72
2023/05/28 10:22:06;;;;;;;;;;;21.20;99.90;;;;;;5025770;28;19921;-71
2023/05/28 10:24:33;;;;;;;;;;;21.30;99.90;;;;;;5025604;28;19921;-70
2023/05/28 10:27:00;;;;;;;;;;;21.30;99.90;;;;;;5043335;28;19921;-70
2023/05/28 10:29:27;;;;;;;;;;;21.20;99.90;;;;;;5045649;28;20112;-72
2023/05/28 10:32:01;;;;;;;;;;;21.30;99.90;;;;;;5045523;28;19921;-71
2023/05/28 10:34:41;;;;;;;;;;;21.40;99.90;;;;;;5030743;28;20255;-70
2023/05/28 10:37:10;;;;;;;;;;;21.50;99.90;;;;;;5024708;28;20116;-70
2023/05/28 10:39:40;;;;;;;;;;;21.60;99.90;;;;;;5040034;28;19992;-70
2023/05/28 10:42:07;;;;;;;;;;;21.70;99.90;;;;;;5044988;28;19921;-70
2023/05/28 10:44:51;;;;;;;;;;;21.80;99.90;;;;;;5045056;28;19921;-71
2023/05/28 10:47:31;;;;;;;;;;;22.00;99.90;;;;;;5044450;28;19964;-70
2023/05/28 10:49:58;;;;;;;;;;;22.20;99.90;;;;;;5045145;28;19921;-70
2023/05/28 10:52:25;;;;;;;;;;;22.30;99.40;;;;;;5044768;28;20153;-70
2023/05/28 10:54:53;;;;;;;;;;;22.40;99.50;;;;;;5042016;28;19925;-70
2023/05/28 10:57:20;;;;;;;;;;;22.60;99.70;;;;;;5042739;28;19920;-70
2023/05/28 10:59:48;;;;;;;;;;;22.80;99.80;;;;;;5044609;28;19921;-70
2023/05/28 11:02:17;;;;;;;;;;;22.90;98.90;;;;;;5044623;28;20035;-70
2023/05/28 11:04:45;;;;;;;;;;;23.00;98.90;;;;;;5044688;28;19921;-71
2023/05/28 11:07:13;;;;;;;;;;;23.10;98.00;;;;;;5044571;28;19928;-71
2023/05/28 11:09:40;;;;;;;;;;;23.10;97.20;;;;;;5044547;28;19921;-70
2023/05/28 11:12:07;;;;;;;;;;;23.20;99.70;;;;;;5037401;28;19960;-70
2023/05/28 11:14:35;;;;;;;;;;;23.20;97.60;;;;;;5043254;28;20025;-70
2023/05/28 11:17:01;;;;;;;;;;;23.30;95.90;;;;;;5043730;28;19921;-70
2023/05/28 11:19:28;;;;;;;;;;;23.30;95.00;;;;;;5044442;28;19985;-70
2023/05/28 11:21:56;;;;;;;;;;;23.20;95.80;;;;;;5044140;28;19921;-70
2023/05/28 11:24:23;;;;;;;;;;;23.20;94.70;;;;;;5044432;28;20003;-70
2023/05/28 11:26:52;;;;;;;;;;;23.20;96.20;;;;;;5037396;28;19927;-70
2023/05/28 11:29:18;;;;;;;;;;;23.30;95.10;;;;;;5044016;28;19921;-70
2023/05/28 11:31:45;;;;;;;;;;;23.30;93.50;;;;;;5044212;28;19988;-70
2023/05/28 11:34:11;;;;;;;;;;;23.30;94.00;;;;;;5044302;28;19963;-70
2023/05/28 11:36:39;;;;;;;;;;;23.50;93.70;;;;;;5043276;28;19943;-71
2023/05/28 11:39:07;;;;;;;;;;;23.70;95.20;;;;;;5044247;28;20021;-70
2023/05/28 11:41:34;;;;;;;;;;;23.90;94.20;;;;;;5035560;28;19922;-69
2023/05/28 11:44:00;;;;;;;;;;;24.00;96.40;;;;;;5043871;28;19921;-70
2023/05/28 11:46:27;;;;;;;;;;;24.10;92.70;;;;;;5043165;28;19921;-71
2023/05/28 11:48:54;;;;;;;;;;;24.30;92.70;;;;;;5042439;28;19927;-70
2023/05/28 11:51:21;;;;;;;;;;;24.50;92.90;;;;;;5043575;28;19921;-70
2023/05/28 11:53:48;;;;;;;;;;;24.60;92.90;;;;;;5043450;28;19921;-70
2023/05/28 11:56:16;;;;;;;;;;;24.50;92.70;;;;;;5042262;28;19980;-70
2023/05/28 11:58:45;;;;;;;;;;;24.60;91.90;;;;;;5035744;28;19936;-71
2023/05/28 12:01:13;;;;;;;;;;;24.70;94.30;;;;;;5043883;28;19922;-70
2023/05/28 12:03:40;;;;;;;;;;;25.00;94.40;;;;;;5043776;28;19921;-70
2023/05/28 12:06:07;;;;;;;;;;;25.10;92.10;;;;;;5042809;28;19929;-71
2023/05/28 12:08:33;;;;;;;;;;;25.30;91.30;;;;;;5043570;28;19927;-70
2023/05/28 12:11:02;;;;;;;;;;;25.20;92.90;;;;;;5045150;28;20286;-70
2023/05/28 12:13:35;;;;;;;;;;;25.20;91.20;;;;;;5035311;28;19924;-70
2023/05/28 12:16:09;;;;;;;;;;;25.30;90.50;;;;;;5037805;28;19960;-70
2023/05/28 12:18:39;;;;;;;;;;;25.50;91.50;;;;;;5042785;28;20212;-70
2023/05/28 12:21:10;;;;;;;;;;;25.50;90.40;;;;;;5043364;28;19927;-70
2023/05/28 12:23:36;;;;;;;;;;;25.30;91.20;;;;;;5045129;28;20260;-71
2023/05/28 12:26:03;;;;;;;;;;;25.30;90.40;;;;;;5053931;28;19933;-68
2023/05/28 12:28:34;;;;;;;;;;;25.10;90.50;;;;;;5038630;28;19921;-69
2023/05/28 12:31:02;;;;;;;;;;;25.30;89.70;;;;;;5043276;28;19929;-69
2023/05/28 12:33:29;;;;;;;;;;;25.50;90.10;;;;;;5041752;28;19921;-70
2023/05/28 12:35:59;;;;;;;;;;;25.80;90.50;;;;;;5041990;28;19921;-70
2023/05/28 12:38:26;;;;;;;;;;;25.90;88.10;;;;;;5037755;28;19933;-71
2023/05/28 12:40:53;;;;;;;;;;;26.20;88.50;;;;;;5051313;28;19921;-70
2023/05/28 12:43:20;;;;;;;;;;;26.50;88.80;;;;;;5054246;28;20263;-70
2023/05/28 12:45:46;;;;;;;;;;;26.70;86.40;;;;;;5043462;28;19921;-70
2023/05/28 12:48:15;;;;;;;;;;;26.50;86.20;;;;;;5042880;28;19989;-70
2023/05/28 12:50:41;;;;;;;;;;;26.40;86.40;;;;;;5041634;28;19921;-70
2023/05/28 12:53:08;;;;;;;;;;;26.20;87.00;;;;;;5036883;28;19920;-71
2023/05/28 12:55:35;;;;;;;;;;;26.30;87.80;;;;;;5058169;28;19929;-71
2023/05/28 12:58:01;;;;;;;;;;;26.50;86.70;;;;;;5042268;28;19989;-71
2023/05/28 13:00:28;;;;;;;;;;;26.50;87.00;;;;;;5044234;28;19928;-71
2023/05/28 13:02:55;;;;;;;;;;;26.60;88.50;;;;;;5046938;28;20141;-71
2023/05/28 13:05:23;;;;;;;;;;;26.80;84.20;;;;;;5046841;28;19988;-71
2023/05/28 13:07:49;;;;;;;;;;;26.60;85.50;;;;;;5046052;28;20071;-71
2023/05/28 13:10:16;;;;;;;;;;;26.50;87.10;;;;;;5046422;28;19984;-71
2023/05/28 13:12:43;;;;;;;;;;;26.70;85.50;;;;;;5038454;28;19928;-72
2023/05/28 13:15:10;;;;;;;;;;;26.70;84.20;;;;;;5045867;28;19980;-71
2023/05/28 13:17:37;;;;;;;;;;;26.70;85.40;;;;;;5037959;28;19965;-70
2023/05/28 13:20:07;;;;;;;;;;;26.80;85.00;;;;;;5039573;28;19992;-71
2023/05/28 13:22:36;;;;;;;;;;;26.90;84.30;;;;;;5037568;28;20235;-71
2023/05/28 13:25:03;;;;;;;;;;;27.10;85.10;;;;;;5045687;28;20441;-71
2023/05/28 13:27:31;;;;;;;;;;;27.10;82.30;;;;;;5043426;28;19925;-70
2023/05/28 13:29:58;;;;;;;;;;;27.00;82.40;;;;;;5048977;28;19987;-70
2023/05/28 13:32:24;;;;;;;;;;;27.00;81.80;;;;;;5045312;28;19921;-71
2023/05/28 13:34:51;;;;;;;;;;;26.80;79.70;;;;;;5045699;28;19960;-72
2023/05/28 13:37:18;;;;;;;;;;;27.00;80.90;;;;;;5044575;28;20009;-70
2023/05/28 13:39:46;;;;;;;;;;;27.30;82.90;;;;;;5046159;28;19921;-71
2023/05/28 13:42:13;;;;;;;;;;;27.50;82.00;;;;;;5053761;28;19921;-71
2023/05/28 13:44:40;;;;;;;;;;;27.70;78.30;;;;;;5044809;28;19928;-71
2023/05/28 13:47:06;;;;;;;;;;;27.70;81.80;;;;;;5045367;28;19921;-71
2023/05/28 13:49:33;;;;;;;;;;;27.90;78.90;;;;;;5044116;28;19921;-71
2023/05/28 13:52:00;;;;;;;;;;;28.00;80.10;;;;;;5037785;28;19999;-71
2023/05/28 13:54:26;;;;;;;;;;;27.90;77.00;;;;;;5045655;28;20152;-73
2023/05/28 13:56:54;;;;;;;;;;;28.00;81.30;;;;;;5034363;28;19921;-70
2023/05/28 13:59:21;;;;;;;;;;;28.00;77.00;;;;;;5042651;28;19987;-71
2023/05/28 14:01:48;;;;;;;;;;;28.00;76.60;;;;;;5044550;28;20303;-71
2023/05/28 14:04:15;;;;;;;;;;;28.10;76.90;;;;;;5044717;28;19921;-71
2023/05/28 14:06:41;;;;;;;;;;;28.00;74.10;;;;;;5044494;28;19925;-71
2023/05/28 14:09:08;;;;;;;;;;;28.20;75.90;;;;;;5045410;28;20419;-71
2023/05/28 14:11:34;;;;;;;;;;;28.30;77.10;;;;;;5043355;28;19929;-71
2023/05/28 14:14:02;;;;;;;;;;;28.20;76.00;;;;;;5044398;28;19993;-70
2023/05/28 14:16:29;;;;;;;;;;;27.90;75.50;;;;;;5044534;28;20112;-71
2023/05/28 14:18:56;;;;;;;;;;;28.10;74.80;;;;;;5045504;28;19952;-71
2023/05/28 14:21:22;;;;;;;;;;;28.40;75.30;;;;;;5044358;28;20060;-71
2023/05/28 14:23:49;;;;;;;;;;;28.50;73.90;;;;;;5045353;28;19927;-72
2023/05/28 14:26:18;;;;;;;;;;;28.40;75.80;;;;;;5043309;28;19928;-71
2023/05/28 14:28:44;;;;;;;;;;;28.20;75.30;;;;;;5045128;28;19921;-71
2023/05/28 14:31:12;;;;;;;;;;;28.20;74.40;;;;;;5044032;28;20250;-71
2023/05/28 14:33:39;;;;;;;;;;;28.10;74.00;;;;;;5045290;28;19921;-71